Latest Weather Observations for Eucla

IDW60801

Issued at 11:02 am WST Saturday 6 February 2016 (issued every 30 minutes, with the page automatically refreshed every 10 minutes)

About weather observations | Map of weather stations | Latest weather observations for WA | Other Formats
Station Details ID: 011003 Name: EUCLA Lat: -31.68 Lon: 128.90 Height: 93.1 m
Data from the previous 72 hours. | See also: Recent months at Eucla
Date/Time
WST
Temp
°C
App
Temp
°C
Dew
Point
Rel
Hum
%
Delta-T
°C
Wind Press
QNH
hPa
Press
MSL
hPa
Rain
since 9 am
mm
Dir
 
Spd
km/h
Gust
km/h
Spd
kts
Gust
kts
06/11:00am 22.8 20.6 13.3 55 5.5 SE 17 26 9 14 1018.2 1017.9 0.0
06/10:30am 22.0 20.0 12.8 56 5.3 ESE 15 26 8 14 1018.3 1018.0 0.0
06/10:00am 22.1 20.2 12.9 56 5.3 SE 15 26 8 14 1018.6 1018.3 0.0
06/09:30am 22.2 20.5 13.5 57 5.0 SE 15 28 8 15 1018.7 1018.4 0.0
06/09:00am 21.1 19.4 13.5 62 4.4 SE 15 24 8 13 1018.9 1018.6 0.0
06/08:30am 21.5 20.0 13.2 59 4.8 ESE 13 19 7 10 1018.7 1018.4 0.0
06/08:00am 21.3 19.8 13.2 60 4.6 SE 13 19 7 10 1019.1 1018.7 0.0
06/07:30am 19.8 17.9 13.0 65 3.9 SSE 15 22 8 12 1018.8 1018.5 0.0
06/07:00am 19.5 18.7 13.0 66 3.7 ESE 9 17 5 9 1018.5 1018.2 0.0
06/06:30am 18.0 17.6 13.1 73 2.8 NE 7 11 4 6 1018.0 1017.7 0.0
06/06:00am 16.0 15.1 12.6 80 1.9 NNE 9 11 5 6 1017.8 1017.5 0.0
06/05:30am 14.9 13.9 12.2 84 1.5 NE 9 9 5 5 1017.6 1017.3 0.0
06/05:00am 14.2 13.0 11.7 85 1.3 ENE 9 9 5 5 1017.3 1017.0 0.0
06/04:30am 15.0 14.0 12.3 84 1.5 E 9 11 5 6 1016.8 1016.5 0.0
06/04:00am 15.4 14.4 12.2 81 1.7 E 9 13 5 7 1016.7 1016.4 0.0
06/03:30am 15.9 15.0 12.5 80 1.9 ESE 9 13 5 7 1016.6 1016.3 0.0
06/03:00am 16.4 15.0 12.2 76 2.3 E 11 13 6 7 1016.3 1016.0 0.0
06/02:30am 17.0 15.9 12.1 73 2.7 ESE 9 13 5 7 1016.3 1016.0 0.0
06/02:00am 17.7 16.8 12.6 72 2.8 ESE 9 15 5 8 1016.4 1016.1 0.0
06/01:30am 17.9 15.8 12.4 70 3.1 ESE 15 24 8 13 1016.5 1016.2 0.0
06/01:00am 18.0 16.3 12.5 70 3.1 SE 13 20 7 11 1016.8 1016.5 0.0
06/12:30am 18.1 16.4 12.3 69 3.2 ESE 13 20 7 11 1017.1 1016.8 0.0
06/12:00am 18.1 15.9 12.1 68 3.3 SE 15 24 8 13 1017.3 1017.0 0.0
 
Date/Time
WST
Temp
°C
App
Temp
°C
Dew
Point
Rel
Hum
%
Delta-T
°C
Wind Press
QNH
hPa
Press
MSL
hPa
Rain
since 9 am
mm
Dir
 
Spd
km/h
Gust
km/h
Spd
kts
Gust
kts
05/11:30pm 18.4 16.7 12.6 69 3.3 ESE 13 22 7 12 1017.8 1017.5 0.0
05/11:00pm 18.5 16.9 12.7 69 3.3 ESE 13 17 7 9 1018.1 1017.8 0.0
05/10:30pm 18.7 16.6 12.5 67 3.5 ESE 15 24 8 13 1018.4 1018.1 0.0
05/10:00pm 19.0 17.1 13.0 68 3.4 ESE 15 26 8 14 1018.4 1018.1 0.0
05/09:30pm 19.0 17.5 13.2 69 3.3 ESE 13 20 7 11 1018.6 1018.3 0.0
05/09:00pm 18.9 16.5 12.6 67 3.5 ESE 17 28 9 15 1018.7 1018.4 0.0
05/08:30pm 19.3 17.1 13.3 68 3.4 ESE 17 26 9 14 1018.6 1018.3 0.0
05/08:00pm 19.2 17.0 13.2 68 3.4 SE 17 28 9 15 1018.6 1018.3 0.0
05/07:30pm 19.0 17.0 12.7 67 3.5 SE 15 26 8 14 1018.4 1018.1 0.0
05/07:00pm 18.9 16.6 12.9 68 3.4 SE 17 26 9 14 1018.5 1018.2 0.0
05/06:30pm 18.9 16.4 12.4 66 3.6 SE 17 28 9 15 1018.3 1018.0 0.0
05/06:00pm 19.2 16.4 12.5 65 3.8 SE 19 30 10 16 1018.1 1017.8 0.0
05/05:30pm 19.7 16.6 12.2 62 4.2 SE 20 33 11 18 1017.9 1017.6 0.0
05/05:00pm 20.9 17.9 12.6 59 4.7 SE 20 30 11 16 1017.6 1017.3 0.0
05/04:30pm 20.9 17.4 12.3 58 4.9 SE 22 35 12 19 1017.2 1016.9 0.0
05/04:00pm 21.0 17.3 11.6 55 5.2 SE 22 32 12 17 1017.2 1016.9 0.0
05/03:30pm 21.6 18.1 12.2 55 5.3 SE 22 33 12 18 1017.2 1016.9 0.0
05/03:00pm 21.4 18.4 12.5 57 5.0 ESE 20 30 11 16 1017.2 1016.9 0.0
05/02:30pm 22.3 18.8 12.3 53 5.7 ESE 22 35 12 19 1017.3 1017.0 0.0
05/02:00pm 22.6 19.3 12.8 54 5.6 ESE 22 33 12 18 1017.6 1017.3 0.0
05/01:30pm 23.6 20.2 12.6 50 6.3 ESE 22 33 12 18 1017.8 1017.5 0.0
05/01:00pm 22.8 19.4 12.4 52 5.9 ESE 22 32 12 17 1018.1 1017.8 0.0
05/12:30pm 22.5 19.1 12.4 52 5.8 ESE 22 33 12 18 1018.3 1018.0 0.0
05/12:00pm 22.6 19.1 12.3 52 5.9 SE 22 32 12 17 1018.6 1018.3 0.0
05/11:30am 22.3 19.2 12.3 53 5.7 SE 20 32 11 17 1019.1 1018.7 0.0
05/11:00am 22.7 19.3 11.4 49 6.3 ESE 20 30 11 16 1019.7 1019.3 0.0
05/10:30am 23.3 19.8 12.3 50 6.3 SE 22 33 12 18 1020.1 1019.7 0.0
05/10:00am 22.2 18.6 11.9 52 5.8 ESE 22 32 12 17 1020.3 1019.9 0.0
05/09:30am 22.1 18.4 11.5 51 5.9 SE 22 32 12 17 1020.5 1020.1 0.0
05/09:00am 21.0 17.4 11.9 56 5.1 ESE 22 33 12 18 1020.8 1020.4 0.0
05/08:30am 21.7 18.7 12.5 56 5.2 SE 20 33 11 18 1020.9 1020.5 0.0
05/08:00am 20.8 17.3 12.2 58 4.8 ESE 22 32 12 17 1020.9 1020.5 0.0
05/07:30am 19.8 16.7 12.3 62 4.2 ESE 20 32 11 17 1020.9 1020.5 0.0
05/07:00am 19.3 16.2 12.3 64 3.9 ESE 20 32 11 17 1020.8 1020.4 0.0
05/06:30am 18.9 16.0 12.2 65 3.7 ESE 19 30 10 16 1020.6 1020.2 0.0
05/06:00am 18.6 15.6 11.9 65 3.7 ESE 19 32 10 17 1020.5 1020.1 0.0
05/05:30am 18.2 16.4 12.0 67 3.4 ESE 13 26 7 14 1020.2 1019.8 0.0
05/05:00am 17.8 16.1 12.3 70 3.0 ESE 13 19 7 10 1019.9 1019.5 0.0
05/04:30am 17.5 14.9 10.6 64 3.7 ESE 15 22 8 12 1019.7 1019.3 0.0
05/04:00am 17.9 15.1 11.2 65 3.6 ESE 17 24 9 13 1019.3 1018.9 0.0
05/03:30am 18.1 15.3 11.2 64 3.8 ESE 17 26 9 14 1019.4 1019.0 0.0
05/03:00am 18.3 15.4 12.3 68 3.3 ESE 19 30 10 16 1019.4 1019.0 0.0
05/02:30am 18.5 16.5 12.7 69 3.3 ESE 15 26 8 14 1019.6 1019.2 0.0
05/02:00am 18.5 16.4 12.3 67 3.4 ESE 15 24 8 13 1019.7 1019.3 0.0
05/01:30am 18.5 16.4 12.5 68 3.4 ESE 15 26 8 14 1019.8 1019.4 0.0
05/01:00am 18.6 16.6 12.6 68 3.4 ESE 15 24 8 13 1019.9 1019.5 0.0
05/12:30am 18.7 16.5 12.0 65 3.7 ESE 15 24 8 13 1020.2 1019.8 0.0
05/12:00am 18.9 15.3 10.5 58 4.5 ESE 20 33 11 18 1020.5 1020.1 0.0
 
Date/Time
WST
Temp
°C
App
Temp
°C
Dew
Point
Rel
Hum
%
Delta-T
°C
Wind Press
QNH
hPa
Press
MSL
hPa
Rain
since 9 am
mm
Dir
 
Spd
km/h
Gust
km/h
Spd
kts
Gust
kts
04/11:30pm 18.8 15.7 10.4 58 4.5 ESE 17 26 9 14 1020.7 1020.3 0.0
04/11:00pm 19.0 15.4 10.6 58 4.5 SE 20 30 11 16 1020.9 1020.5 0.0
04/10:30pm 19.1 15.7 10.4 57 4.7 ESE 19 32 10 17 1021.1 1020.7 0.0
04/10:00pm 19.1 15.7 11.4 61 4.2 ESE 20 32 11 17 1021.1 1020.7 0.0
04/09:30pm 18.9 15.9 12.4 66 3.6 SE 20 32 11 17 1021.4 1021.0 0.0
04/09:00pm 19.1 15.6 13.3 69 3.3 SE 24 37 13 20 1021.4 1021.0 0.0
04/08:30pm 19.1 15.6 12.1 64 3.9 SE 22 33 12 18 1021.5 1021.1 0.0
04/08:00pm 19.3 15.9 10.6 57 4.7 SE 19 32 10 17 1021.3 1020.9 0.0
04/07:30pm 19.1 16.5 12.1 64 3.9 SE 17 30 9 16 1021.5 1021.1 0.0
04/07:00pm 19.3 15.9 10.6 57 4.7 SE 19 30 10 16 1021.4 1021.0 0.0
04/06:30pm 19.3 16.2 11.6 61 4.3 SE 19 35 10 19 1021.2 1020.8 0.0
04/06:00pm 19.3 16.4 13.0 67 3.6 SE 20 33 11 18 1021.2 1020.8 0.0
04/05:30pm 19.6 16.7 12.8 65 3.8 SE 20 32 11 17 1021.2 1020.8 0.0
04/05:00pm 20.0 17.3 13.5 66 3.7 ESE 20 32 11 17 1020.9 1020.5 0.0
04/04:30pm 20.5 17.5 12.7 61 4.4 SE 20 37 11 20 1020.6 1020.2 0.0
04/04:00pm 20.0 16.7 12.7 63 4.1 SE 22 35 12 19 1020.7 1020.3 0.0
04/03:30pm 21.2 18.4 13.1 60 4.6 SE 20 30 11 16 1020.8 1020.4 0.0
04/03:00pm 21.5 17.9 12.9 58 4.9 SE 24 37 13 20 1021.0 1020.6 0.0
04/02:30pm 21.8 18.2 12.9 57 5.1 SE 24 37 13 20 1021.0 1020.6 0.0
04/02:00pm 22.5 19.0 12.2 52 5.8 SE 22 32 12 17 1021.2 1020.8 0.0
04/01:30pm 21.8 18.6 11.8 53 5.6 ESE 20 32 11 17 1021.6 1021.2 0.0
04/01:00pm 21.7 17.8 12.0 54 5.5 ESE 24 35 13 19 1021.8 1021.4 0.0
04/12:30pm 22.6 19.5 11.7 50 6.1 ESE 19 30 10 16 1022.1 1021.7 0.0
04/12:00pm 20.8 17.6 11.2 54 5.3 ESE 19 28 10 15 1022.6 1022.2 0.0
04/11:30am 20.6 17.0 13.1 62 4.3 ESE 24 37 13 20 1022.9 1022.6 0.0
04/11:00am 21.8 18.5 11.5 52 5.7 SE 20 30 11 16 1023.1 1022.8 0.0
04/10:30am 20.8 16.6 12.5 59 4.7 ESE 26 39 14 21 1023.4 1023.1 0.0
04/10:00am 18.5 17.4 14.2 76 2.5 SE 13 17 7 9 1023.5 1023.2 0.0
04/09:30am 19.9 16.4 13.4 66 3.7 ESE 24 41 13 22 1023.8 1023.5 0.0
04/09:00am 19.9 17.2 13.6 67 3.6 ESE 20 32 11 17 1023.6 1023.3 0.4
04/08:30am 20.6 18.6 14.0 66 3.8 SE 17 28 9 15 1023.6 1023.3 0.4
04/08:00am 19.3 16.4 13.9 71 3.1 SSE 22 32 12 17 1023.5 1023.2 0.4
04/07:30am 18.6 17.0 13.9 74 2.7 ESE 15 28 8 15 1023.4 1023.1 0.4
04/07:00am 17.4 16.4 14.5 83 1.7 ESE 13 22 7 12 1023.1 1022.8 0.4
04/06:30am 18.1 17.3 14.0 77 2.4 SE 11 15 6 8 1022.8 1022.5 0.4
04/06:00am 18.1 15.4 12.8 71 3.0 ESE 19 30 10 16 1022.6 1022.2 0.4
04/05:30am 18.1 15.8 14.6 80 2.0 ESE 20 35 11 19 1022.4 1022.0 0.4
04/05:00am 17.4 16.9 11.9 70 3.0 ENE 6 11 3 6 1021.9 1021.5 0.4
04/04:30am 17.5 17.2 14.4 82 1.8 E 9 15 5 8 1021.8 1021.4 0.4
04/04:00am 17.6 15.8 14.5 82 1.8 SE 17 26 9 14 1021.5 1021.1 0.4
04/03:30am 18.6 16.2 12.8 69 3.3 SE 17 26 9 14 1021.2 1020.8 0.0
04/03:00am 18.1 17.0 13.0 72 2.9 SE 11 19 6 10 1021.1 1020.7 0.0
04/02:30am 16.9 16.2 14.2 84 1.5 SE 11 22 6 12 1021.1 1020.7 0.0
04/02:00am 18.4 16.3 12.4 68 3.3 SE 15 24 8 13 1020.9 1020.5 0.0
04/01:30am 18.6 15.9 11.7 64 3.8 SE 17 22 9 12 1021.0 1020.6 0.0
04/01:00am 18.3 15.8 13.4 73 2.8 SE 19 28 10 15 1020.9 1020.5 0.0
04/12:30am 18.5 17.4 14.2 76 2.5 SE 13 20 7 11 1021.1 1020.7 0.0
04/12:00am 18.4 16.4 13.9 75 2.6 SE 17 28 9 15 1021.2 1020.8 0.0
 
Date/Time
WST
Temp
°C
App
Temp
°C
Dew
Point
Rel
Hum
%
Delta-T
°C
Wind Press
QNH
hPa
Press
MSL
hPa
Rain
since 9 am
mm
Dir
 
Spd
km/h
Gust
km/h
Spd
kts
Gust
kts
03/11:30pm 18.1 16.5 14.0 77 2.4 ESE 15 22 8 12 1021.3 1020.9 0.0
03/11:00pm 17.3 17.5 14.8 85 1.4 ESE 7 13 4 7 1021.5 1021.1 0.0
03/10:30pm 17.2 16.6 14.5 84 1.6 SSE 11 17 6 9 1021.7 1021.3 0.0
03/10:00pm 18.0 15.4 13.9 77 2.3 SE 20 30 11 16 1021.8 1021.4 0.0
03/09:30pm 18.0 16.3 13.5 75 2.6 SE 15 20 8 11 1022.0 1021.6 0.0
03/09:00pm 18.3 16.2 13.6 74 2.7 SE 17 26 9 14 1022.0 1021.6 0.0
03/08:30pm 18.5 16.3 14.4 77 2.4 SE 19 30 10 16 1022.0 1021.6 0.0
03/08:00pm 18.2 16.7 14.3 78 2.2 SE 15 22 8 12 1021.8 1021.4 0.0
03/07:30pm 18.7 16.7 13.8 73 2.8 SE 17 32 9 17 1021.6 1021.2 0.0
03/07:00pm 18.7 15.9 13.3 71 3.1 SE 20 30 11 16 1021.5 1021.1 0.0
03/06:30pm 19.0 16.5 13.6 71 3.1 SE 19 30 10 16 1021.3 1020.9 0.0
03/06:00pm 19.2 16.7 13.6 70 3.2 SE 19 26 10 14 1021.1 1020.7 0.0
03/05:30pm 19.1 17.8 13.7 71 3.1 SSE 13 20 7 11 1020.9 1020.5 0.0
03/05:00pm 18.1 17.4 14.2 78 2.2 SE 11 15 6 8 1020.8 1020.4 0.0
03/04:30pm 18.8 15.6 13.2 70 3.2 SSE 22 35 12 19 1020.5 1020.1 0.0
03/04:00pm 20.2 17.3 14.1 68 3.5 SSE 22 35 12 19 1020.3 1019.9 0.0
03/03:30pm 20.8 17.8 14.9 69 3.5 SSE 24 35 13 19 1020.2 1019.8 0.0
03/03:00pm 22.2 18.7 13.3 57 5.1 SSE 24 35 13 19 1020.3 1019.9 0.0
03/02:30pm 22.6 19.6 13.7 57 5.2 SE 22 32 12 17 1020.4 1020.0 0.0
03/02:00pm 22.7 19.7 13.7 56 5.2 SSE 22 32 12 17 1020.4 1020.0 0.0
03/01:30pm 22.5 19.0 14.6 61 4.7 SSE 26 37 14 20 1020.3 1019.9 0.0
03/01:00pm 22.8 19.8 12.7 53 5.8 SSE 20 30 11 16 1020.3 1019.9 0.0
03/12:30pm 23.6 20.1 11.0 45 7.0 SE 20 30 11 16 1020.4 1020.0 0.0
03/12:00pm 23.2 19.6 10.6 45 7.0 SE 20 30 11 16 1020.3 1019.9 0.0
03/11:30am 23.6 20.4 12.0 48 6.6 SSE 20 32 11 17 1020.3 1019.9 0.0

Other Formats:

Comma delimited format used in spreadsheet applications
http://www.bom.gov.au/fwo/IDW60801/IDW60801.94647.axf

JavaScript Object Notation format (JSON) in row-major order
http://www.bom.gov.au/fwo/IDW60801/IDW60801.94647.json